createdAt,value
2023-04-04T00:02:21.465Z,3.55
2023-04-04T00:10:27.433Z,4.38
2023-04-04T00:18:35.591Z,4.25
2023-04-04T00:26:41.212Z,4.13
2023-04-04T00:34:49.341Z,3.45
2023-04-04T00:42:55.467Z,3.90
2023-04-04T00:51:03.864Z,7.32
2023-04-04T00:59:10.636Z,6.45
2023-04-04T01:07:18.870Z,4.63
2023-04-04T01:15:24.366Z,4.05
2023-04-04T01:23:39.684Z,4.85
2023-04-04T01:31:52.674Z,7.25
2023-04-04T01:40:04.760Z,5.85
2023-04-04T01:48:16.853Z,7.70
2023-04-04T01:56:26.272Z,8.50
2023-04-04T02:04:35.191Z,7.63
2023-04-04T02:12:41.159Z,7.72
2023-04-04T02:20:49.262Z,5.07
2023-04-04T02:28:54.832Z,4.60
2023-04-04T02:37:04.219Z,4.80
2023-04-04T02:45:11.795Z,3.83
2023-04-04T02:53:22.554Z,3.60
2023-04-04T03:01:31.202Z,3.97
2023-04-04T03:09:45.362Z,3.85
2023-04-04T03:17:52.117Z,3.80
2023-04-04T03:26:02.408Z,3.55
2023-04-04T03:34:08.602Z,3.33
2023-04-04T03:42:17.052Z,3.10
2023-04-04T03:50:22.542Z,2.70
2023-04-04T03:58:34.660Z,2.20
2023-04-04T04:06:40.353Z,2.17
2023-04-04T04:14:48.566Z,1.83
2023-04-04T04:22:54.377Z,1.60
2023-04-04T04:31:07.806Z,1.60
2023-04-04T04:39:19.705Z,2.10
2023-04-04T04:47:54.188Z,2.78
2023-04-04T04:56:00.192Z,3.60
2023-04-04T05:04:08.546Z,3.75
2023-04-04T05:12:33.964Z,5.80
2023-04-04T05:20:42.428Z,7.88
2023-04-04T05:28:51.849Z,10.43
2023-04-04T05:37:02.007Z,12.20
2023-04-04T05:45:11.550Z,7.75
2023-04-04T05:53:19.763Z,6.25
2023-04-04T06:01:29.644Z,5.18
2023-04-04T06:09:40.965Z,5.75
2023-04-04T06:17:47.772Z,5.38
2023-04-04T06:25:57.372Z,5.10
2023-04-04T06:34:04.407Z,7.18
2023-04-04T06:42:17.115Z,6.68
2023-04-04T06:50:27.489Z,11.38
2023-04-04T06:58:35.917Z,10.88
2023-04-04T07:06:41.502Z,9.48
2023-04-04T07:14:49.546Z,8.93
2023-04-04T07:22:54.919Z,7.38
2023-04-04T07:31:05.365Z,7.15
2023-04-04T07:39:10.784Z,8.13
2023-04-04T07:47:19.271Z,10.15
2023-04-04T07:55:25.580Z,13.70
2023-04-04T08:03:33.802Z,10.23
2023-04-04T08:11:39.589Z,12.98
2023-04-04T08:19:48.703Z,12.07
2023-04-04T08:27:54.321Z,8.02
2023-04-04T08:36:02.519Z,8.95
2023-04-04T08:44:08.734Z,7.75
2023-04-04T08:52:20.402Z,8.20
2023-04-04T09:00:26.032Z,9.27
2023-04-04T09:08:34.430Z,10.95
2023-04-04T09:16:40.876Z,9.82
2023-04-04T09:24:50.850Z,7.70
2023-04-04T09:33:06.998Z,7.80
2023-04-04T09:41:18.316Z,7.40
2023-04-04T09:49:24.469Z,6.25
2023-04-04T09:57:35.203Z,5.93
2023-04-04T10:05:40.824Z,7.03
2023-04-04T10:13:48.882Z,6.93
2023-04-04T10:21:54.735Z,7.97
2023-04-04T10:30:03.416Z,7.55
2023-04-04T10:38:09.161Z,7.65
2023-04-04T10:46:22.306Z,9.18
2023-04-04T10:54:29.553Z,6.30
2023-04-04T11:02:51.659Z,9.45
2023-04-04T11:10:58.286Z,8.68
2023-04-04T11:19:06.563Z,7.78
2023-04-04T11:27:12.027Z,9.57
2023-04-04T11:35:21.148Z,7.00
2023-04-04T11:43:26.845Z,6.43
2023-04-04T11:51:35.753Z,6.78
2023-04-04T11:59:43.924Z,6.03
2023-04-04T12:07:53.212Z,7.63
2023-04-04T12:15:59.632Z,8.27
2023-04-04T12:24:07.942Z,6.13
2023-04-04T12:32:14.580Z,8.07
2023-04-04T12:40:25.858Z,7.40
2023-04-04T12:48:34.492Z,6.82
2023-04-04T12:56:43.760Z,6.03
2023-04-04T13:04:49.939Z,6.18
2023-04-04T13:13:02.756Z,5.05
2023-04-04T13:21:10.198Z,5.40
2023-04-04T13:29:18.273Z,5.35
2023-04-04T13:37:25.385Z,6.20
2023-04-04T13:45:36.307Z,6.03
2023-04-04T13:53:41.766Z,4.55
2023-04-04T14:01:49.901Z,4.78
2023-04-04T14:09:55.312Z,7.60
2023-04-04T14:18:03.446Z,8.45
2023-04-04T14:26:09.234Z,10.35
2023-04-04T14:34:17.287Z,12.63
2023-04-04T14:42:22.739Z,9.40
2023-04-04T14:50:30.868Z,7.90
2023-04-04T14:58:36.295Z,7.53
2023-04-04T15:06:44.481Z,6.57
2023-04-04T15:14:49.851Z,5.80
2023-04-04T15:22:57.941Z,5.75
2023-04-04T15:31:04.513Z,6.13
2023-04-04T15:39:14.085Z,7.38
2023-04-04T15:47:19.742Z,5.85
2023-04-04T15:55:27.836Z,5.38
2023-04-04T16:03:33.398Z,7.18
2023-04-04T16:11:41.520Z,9.38
2023-04-04T16:19:46.998Z,9.27
2023-04-04T16:28:01.900Z,11.77
2023-04-04T16:36:07.799Z,11.93
2023-04-04T16:44:16.104Z,10.90
2023-04-04T16:52:21.593Z,12.35
2023-04-04T17:00:29.926Z,10.05
2023-04-04T17:08:35.348Z,8.70
2023-04-04T17:16:43.860Z,9.02
2023-04-04T17:24:49.475Z,7.63
2023-04-04T17:32:57.819Z,9.48
2023-04-04T17:41:04.521Z,10.50
2023-04-04T17:49:12.647Z,10.30
2023-04-04T17:57:18.498Z,10.68
2023-04-04T18:05:29.279Z,11.07
2023-04-04T18:13:36.482Z,9.63
2023-04-04T18:21:45.889Z,10.68
2023-04-04T18:29:51.241Z,10.40
2023-04-04T18:38:01.882Z,10.13
2023-04-04T18:46:08.021Z,10.40
2023-04-04T18:54:18.454Z,11.80
2023-04-04T19:02:23.937Z,11.43
2023-04-04T19:10:32.235Z,15.05
2023-04-04T19:18:37.953Z,18.60
2023-04-04T19:26:46.044Z,18.83
2023-04-04T19:34:52.541Z,15.52
2023-04-04T19:43:03.446Z,15.30
2023-04-04T19:51:11.207Z,17.13
2023-04-04T19:59:57.597Z,15.38
2023-04-04T20:08:05.021Z,13.18
2023-04-04T20:16:15.966Z,13.40
2023-04-04T20:24:22.062Z,10.75
2023-04-04T20:32:30.222Z,11.52
2023-04-04T20:40:42.086Z,11.13
2023-04-04T20:48:50.928Z,11.48
2023-04-04T20:56:59.681Z,11.32
2023-04-04T21:05:29.433Z,11.00
2023-04-04T21:13:39.185Z,10.15
2023-04-04T21:21:47.358Z,9.80
2023-04-04T21:29:52.854Z,9.13
2023-04-04T21:38:01.146Z,8.63
2023-04-04T21:46:06.809Z,8.57
2023-04-04T21:54:14.993Z,8.73
2023-04-04T22:02:20.549Z,9.07
2023-04-04T22:10:29.998Z,7.15
2023-04-04T22:18:36.727Z,5.90
2023-04-04T22:26:46.093Z,5.80
2023-04-04T22:34:51.914Z,5.85
2023-04-04T22:43:00.352Z,5.88
2023-04-04T22:51:05.817Z,5.20
2023-04-04T22:59:14.012Z,6.32
2023-04-04T23:07:19.598Z,6.47
2023-04-04T23:15:29.288Z,6.13
2023-04-04T23:23:34.780Z,6.13
2023-04-04T23:31:43.069Z,6.18
2023-04-04T23:39:49.040Z,15.48
2023-04-04T23:47:57.804Z,12.40
2023-04-04T23:56:03.726Z,7.18
